KGAD/GAD METAR and TAF weather

Enter ICAO airport designator
Station Type Date Time Source
KGAD METAR 2020/04/04 10:56 UTC NOAA

KGAD 041056Z AUTO 25003KT 10SM OVC095 12/11 A2999 RMK AO2 SLP156 T01170106


Station Type Date Time Source
KGAD Decoded METAR 2020/04/04 10:56 UTC NOAA

Gadsden, Gadsden Municipal Airport, AL, United States (KGAD) 33-58N 086-05W
Apr 04, 2020 - 06:56 AM EDT / 2020.04.04 1056 UTC
Wind: from the WSW (250 degrees) at 3 MPH (3 KT):0
Visibility: 10 mile(s):0
Sky conditions: overcast
Temperature: 53.1 F (11.7 C)
Dew Point: 51.1 F (10.6 C)
Relative Humidity: 92%
Pressure (altimeter): 29.99 in. Hg (1015 hPa)
ob: KGAD 041056Z AUTO 25003KT 10SM OVC095 12/11 A2999 RMK AO2 SLP156 T01170106
cycle: 11

Station Type Date Time Source
KGAD TAF UTC NOAA

Error!

Example: see airport list